sensor_id;sensor_type;location;lat;lon;timestamp;P1;durP1;ratioP1;P2;durP2;ratioP2
73126;SDS011;61316;47.852;11.410;2022-09-12T00:00:00;1.00;;;0.50;;
73126;SDS011;61316;47.852;11.410;2022-09-12T00:02:26;0.80;;;0.60;;
73126;SDS011;61316;47.852;11.410;2022-09-12T00:04:51;0.90;;;0.60;;
73126;SDS011;61316;47.852;11.410;2022-09-12T00:07:16;0.60;;;0.50;;
73126;SDS011;61316;47.852;11.410;2022-09-12T00:09:41;0.77;;;0.40;;
73126;SDS011;61316;47.852;11.410;2022-09-12T00:12:07;1.03;;;0.60;;
73126;SDS011;61316;47.852;11.410;2022-09-12T00:14:32;0.53;;;0.50;;
73126;SDS011;61316;47.852;11.410;2022-09-12T00:16:57;0.40;;;0.40;;
73126;SDS011;61316;47.852;11.410;2022-09-12T00:19:23;0.95;;;0.63;;
73126;SDS011;61316;47.852;11.410;2022-09-12T00:21:48;0.55;;;0.50;;
73126;SDS011;61316;47.852;11.410;2022-09-12T00:24:13;0.80;;;0.50;;
73126;SDS011;61316;47.852;11.410;2022-09-12T00:26:39;0.50;;;0.50;;
73126;SDS011;61316;47.852;11.410;2022-09-12T00:29:04;0.40;;;0.40;;
73126;SDS011;61316;47.852;11.410;2022-09-12T00:31:29;0.40;;;0.40;;
73126;SDS011;61316;47.852;11.410;2022-09-12T00:33:55;0.50;;;0.50;;
73126;SDS011;61316;47.852;11.410;2022-09-12T00:36:21;0.45;;;0.45;;
73126;SDS011;61316;47.852;11.410;2022-09-12T00:38:47;0.63;;;0.40;;
73126;SDS011;61316;47.852;11.410;2022-09-12T00:41:17;0.60;;;0.40;;
73126;SDS011;61316;47.852;11.410;2022-09-12T00:43:44;0.40;;;0.40;;
73126;SDS011;61316;47.852;11.410;2022-09-12T00:48:38;0.50;;;0.50;;
73126;SDS011;61316;47.852;11.410;2022-09-12T00:51:05;0.40;;;0.40;;
73126;SDS011;61316;47.852;11.410;2022-09-12T00:53:30;0.50;;;0.50;;
73126;SDS011;61316;47.852;11.410;2022-09-12T00:55:55;0.40;;;0.40;;
73126;SDS011;61316;47.852;11.410;2022-09-12T00:58:22;0.50;;;0.43;;
73126;SDS011;61316;47.852;11.410;2022-09-12T01:00:49;0.50;;;0.50;;
73126;SDS011;61316;47.852;11.410;2022-09-12T01:03:15;0.40;;;0.40;;
73126;SDS011;61316;47.852;11.410;2022-09-12T01:06:03;0.70;;;0.50;;
73126;SDS011;61316;47.852;11.410;2022-09-12T01:08:26;0.70;;;0.45;;
73126;SDS011;61316;47.852;11.410;2022-09-12T01:10:52;0.80;;;0.55;;
73126;SDS011;61316;47.852;11.410;2022-09-12T01:13:18;0.47;;;0.47;;
73126;SDS011;61316;47.852;11.410;2022-09-12T01:15:43;1.13;;;0.40;;
73126;SDS011;61316;47.852;11.410;2022-09-12T01:18:11;0.40;;;0.40;;
73126;SDS011;61316;47.852;11.410;2022-09-12T01:23:15;0.50;;;0.40;;
73126;SDS011;61316;47.852;11.410;2022-09-12T01:30:46;0.50;;;0.50;;
73126;SDS011;61316;47.852;11.410;2022-09-12T01:38:21;0.47;;;0.47;;
73126;SDS011;61316;47.852;11.410;2022-09-12T01:40:49;0.40;;;0.40;;
73126;SDS011;61316;47.852;11.410;2022-09-12T01:43:30;0.40;;;0.40;;
73126;SDS011;61316;47.852;11.410;2022-09-12T01:45:58;0.40;;;0.40;;
73126;SDS011;61316;47.852;11.410;2022-09-12T01:48:26;0.50;;;0.50;;
73126;SDS011;61316;47.852;11.410;2022-09-12T01:50:57;0.50;;;0.50;;
73126;SDS011;61316;47.852;11.410;2022-09-12T01:53:27;0.50;;;0.50;;
73126;SDS011;61316;47.852;11.410;2022-09-12T01:55:55;0.50;;;0.50;;
73126;SDS011;61316;47.852;11.410;2022-09-12T01:58:22;0.40;;;0.40;;
73126;SDS011;61316;47.852;11.410;2022-09-12T02:00:57;0.50;;;0.45;;
73126;SDS011;61316;47.852;11.410;2022-09-12T02:03:25;0.60;;;0.40;;
73126;SDS011;61316;47.852;11.410;2022-09-12T02:08:18;0.40;;;0.40;;
73126;SDS011;61316;47.852;11.410;2022-09-12T02:13:56;0.50;;;0.50;;
73126;SDS011;61316;47.852;11.410;2022-09-12T02:16:24;0.50;;;0.50;;
73126;SDS011;61316;47.852;11.410;2022-09-12T02:18:54;0.40;;;0.40;;
73126;SDS011;61316;47.852;11.410;2022-09-12T02:21:21;0.50;;;0.50;;
73126;SDS011;61316;47.852;11.410;2022-09-12T02:23:49;0.55;;;0.50;;
73126;SDS011;61316;47.852;11.410;2022-09-12T02:26:22;0.50;;;0.50;;
73126;SDS011;61316;47.852;11.410;2022-09-12T02:28:49;0.40;;;0.40;;
73126;SDS011;61316;47.852;11.410;2022-09-12T02:39:14;0.40;;;0.40;;
73126;SDS011;61316;47.852;11.410;2022-09-12T02:41:43;0.40;;;0.40;;
73126;SDS011;61316;47.852;11.410;2022-09-12T02:44:09;0.50;;;0.50;;
73126;SDS011;61316;47.852;11.410;2022-09-12T02:46:38;0.40;;;0.40;;
73126;SDS011;61316;47.852;11.410;2022-09-12T02:49:04;0.40;;;0.40;;
73126;SDS011;61316;47.852;11.410;2022-09-12T02:51:30;0.40;;;0.40;;
73126;SDS011;61316;47.852;11.410;2022-09-12T02:53:55;0.40;;;0.40;;
73126;SDS011;61316;47.852;11.410;2022-09-12T02:56:28;0.50;;;0.50;;
73126;SDS011;61316;47.852;11.410;2022-09-12T02:58:53;0.40;;;0.40;;
73126;SDS011;61316;47.852;11.410;2022-09-12T03:08:52;0.43;;;0.43;;
73126;SDS011;61316;47.852;11.410;2022-09-12T03:19:24;0.63;;;0.40;;
73126;SDS011;61316;47.852;11.410;2022-09-12T03:21:54;0.40;;;0.40;;
73126;SDS011;61316;47.852;11.410;2022-09-12T03:24:23;0.40;;;0.40;;
73126;SDS011;61316;47.852;11.410;2022-09-12T03:26:52;0.45;;;0.45;;
73126;SDS011;61316;47.852;11.410;2022-09-12T03:29:19;0.40;;;0.40;;
73126;SDS011;61316;47.852;11.410;2022-09-12T03:31:50;0.80;;;0.40;;
73126;SDS011;61316;47.852;11.410;2022-09-12T03:34:15;0.40;;;0.40;;
73126;SDS011;61316;47.852;11.410;2022-09-12T03:36:40;0.40;;;0.40;;
73126;SDS011;61316;47.852;11.410;2022-09-12T03:39:06;0.40;;;0.40;;
73126;SDS011;61316;47.852;11.410;2022-09-12T03:41:31;0.40;;;0.40;;
73126;SDS011;61316;47.852;11.410;2022-09-12T03:43:56;0.50;;;0.50;;
73126;SDS011;61316;47.852;11.410;2022-09-12T03:46:21;0.33;;;0.33;;
73126;SDS011;61316;47.852;11.410;2022-09-12T03:48:46;0.40;;;0.40;;
73126;SDS011;61316;47.852;11.410;2022-09-12T03:51:11;0.43;;;0.43;;
73126;SDS011;61316;47.852;11.410;2022-09-12T03:53:37;0.40;;;0.40;;
73126;SDS011;61316;47.852;11.410;2022-09-12T03:56:08;0.90;;;0.30;;
73126;SDS011;61316;47.852;11.410;2022-09-12T03:58:34;0.47;;;0.47;;
73126;SDS011;61316;47.852;11.410;2022-09-12T04:01:04;0.40;;;0.40;;
73126;SDS011;61316;47.852;11.410;2022-09-12T04:03:30;0.40;;;0.40;;
73126;SDS011;61316;47.852;11.410;2022-09-12T04:05:56;0.40;;;0.40;;
73126;SDS011;61316;47.852;11.410;2022-09-12T04:08:21;0.45;;;0.45;;
73126;SDS011;61316;47.852;11.410;2022-09-12T04:10:46;0.40;;;0.40;;
73126;SDS011;61316;47.852;11.410;2022-09-12T04:13:11;0.40;;;0.40;;
73126;SDS011;61316;47.852;11.410;2022-09-12T04:15:36;0.70;;;0.40;;
73126;SDS011;61316;47.852;11.410;2022-09-12T04:18:02;0.40;;;0.40;;
73126;SDS011;61316;47.852;11.410;2022-09-12T04:20:27;0.30;;;0.30;;
73126;SDS011;61316;47.852;11.410;2022-09-12T04:22:52;0.40;;;0.40;;
73126;SDS011;61316;47.852;11.410;2022-09-12T04:25:17;0.70;;;0.40;;
73126;SDS011;61316;47.852;11.410;2022-09-12T04:27:42;0.40;;;0.40;;
73126;SDS011;61316;47.852;11.410;2022-09-12T04:30:08;0.47;;;0.47;;
73126;SDS011;61316;47.852;11.410;2022-09-12T04:32:33;0.40;;;0.40;;
73126;SDS011;61316;47.852;11.410;2022-09-12T04:34:58;0.40;;;0.40;;
73126;SDS011;61316;47.852;11.410;2022-09-12T04:37:24;0.40;;;0.40;;
73126;SDS011;61316;47.852;11.410;2022-09-12T04:39:49;1.20;;;0.43;;
73126;SDS011;61316;47.852;11.410;2022-09-12T04:42:15;0.40;;;0.40;;
73126;SDS011;61316;47.852;11.410;2022-09-12T04:44:40;0.40;;;0.40;;
73126;SDS011;61316;47.852;11.410;2022-09-12T04:47:06;0.50;;;0.50;;
73126;SDS011;61316;47.852;11.410;2022-09-12T04:49:31;1.80;;;0.50;;
73126;SDS011;61316;47.852;11.410;2022-09-12T04:51:57;0.40;;;0.40;;
73126;SDS011;61316;47.852;11.410;2022-09-12T04:54:22;0.40;;;0.40;;
73126;SDS011;61316;47.852;11.410;2022-09-12T04:56:48;0.40;;;0.40;;
73126;SDS011;61316;47.852;11.410;2022-09-12T04:59:14;1.00;;;0.50;;
73126;SDS011;61316;47.852;11.410;2022-09-12T05:01:40;0.60;;;0.45;;
73126;SDS011;61316;47.852;11.410;2022-09-12T05:04:05;0.40;;;0.40;;
73126;SDS011;61316;47.852;11.410;2022-09-12T05:06:31;0.47;;;0.47;;
73126;SDS011;61316;47.852;11.410;2022-09-12T05:08:57;0.50;;;0.50;;
73126;SDS011;61316;47.852;11.410;2022-09-12T05:11:26;1.13;;;0.40;;
73126;SDS011;61316;47.852;11.410;2022-09-12T05:13:52;1.98;;;0.40;;
73126;SDS011;61316;47.852;11.410;2022-09-12T05:16:17;0.50;;;0.50;;
73126;SDS011;61316;47.852;11.410;2022-09-12T05:18:43;0.43;;;0.40;;
73126;SDS011;61316;47.852;11.410;2022-09-12T05:21:10;0.50;;;0.50;;
73126;SDS011;61316;47.852;11.410;2022-09-12T05:23:35;0.95;;;0.50;;
73126;SDS011;61316;47.852;11.410;2022-09-12T05:26:00;3.17;;;0.67;;
73126;SDS011;61316;47.852;11.410;2022-09-12T05:28:44;3.90;;;0.50;;
73126;SDS011;61316;47.852;11.410;2022-09-12T05:31:10;1.40;;;0.40;;
73126;SDS011;61316;47.852;11.410;2022-09-12T05:33:36;1.60;;;0.50;;
73126;SDS011;61316;47.852;11.410;2022-09-12T05:36:03;1.07;;;0.50;;
73126;SDS011;61316;47.852;11.410;2022-09-12T05:38:29;0.90;;;0.40;;
73126;SDS011;61316;47.852;11.410;2022-09-12T05:43:30;1.20;;;0.50;;
73126;SDS011;61316;47.852;11.410;2022-09-12T05:46:00;0.90;;;0.50;;
73126;SDS011;61316;47.852;11.410;2022-09-12T05:48:25;0.40;;;0.40;;
73126;SDS011;61316;47.852;11.410;2022-09-12T05:50:52;0.93;;;0.47;;
73126;SDS011;61316;47.852;11.410;2022-09-12T05:53:22;1.85;;;0.50;;
73126;SDS011;61316;47.852;11.410;2022-09-12T05:56:00;1.50;;;0.50;;
73126;SDS011;61316;47.852;11.410;2022-09-12T05:58:25;0.90;;;0.40;;
73126;SDS011;61316;47.852;11.410;2022-09-12T06:00:50;0.57;;;0.57;;
73126;SDS011;61316;47.852;11.410;2022-09-12T06:03:15;1.77;;;0.43;;
73126;SDS011;61316;47.852;11.410;2022-09-12T06:05:41;2.17;;;0.60;;
73126;SDS011;61316;47.852;11.410;2022-09-12T06:08:06;0.50;;;0.50;;
73126;SDS011;61316;47.852;11.410;2022-09-12T06:10:31;1.47;;;0.47;;
73126;SDS011;61316;47.852;11.410;2022-09-12T06:12:59;1.83;;;0.50;;
73126;SDS011;61316;47.852;11.410;2022-09-12T06:15:24;0.50;;;0.40;;
73126;SDS011;61316;47.852;11.410;2022-09-12T06:17:49;0.60;;;0.40;;
73126;SDS011;61316;47.852;11.410;2022-09-12T06:20:14;0.37;;;0.37;;
73126;SDS011;61316;47.852;11.410;2022-09-12T06:22:40;0.80;;;0.40;;
73126;SDS011;61316;47.852;11.410;2022-09-12T06:25:05;0.50;;;0.50;;
73126;SDS011;61316;47.852;11.410;2022-09-12T06:27:30;1.20;;;0.40;;
73126;SDS011;61316;47.852;11.410;2022-09-12T06:29:55;1.20;;;0.50;;
73126;SDS011;61316;47.852;11.410;2022-09-12T06:32:20;0.50;;;0.50;;
73126;SDS011;61316;47.852;11.410;2022-09-12T06:34:46;0.57;;;0.40;;
73126;SDS011;61316;47.852;11.410;2022-09-12T06:37:12;0.40;;;0.40;;
73126;SDS011;61316;47.852;11.410;2022-09-12T06:39:37;0.40;;;0.40;;
73126;SDS011;61316;47.852;11.410;2022-09-12T06:42:03;0.40;;;0.40;;
73126;SDS011;61316;47.852;11.410;2022-09-12T06:44:28;0.98;;;0.60;;
73126;SDS011;61316;47.852;11.410;2022-09-12T06:46:54;0.50;;;0.50;;
73126;SDS011;61316;47.852;11.410;2022-09-12T06:49:19;0.50;;;0.50;;
73126;SDS011;61316;47.852;11.410;2022-09-12T06:51:44;0.77;;;0.50;;
73126;SDS011;61316;47.852;11.410;2022-09-12T06:54:13;1.30;;;0.50;;
73126;SDS011;61316;47.852;11.410;2022-09-12T06:56:39;0.50;;;0.50;;
73126;SDS011;61316;47.852;11.410;2022-09-12T06:59:04;0.50;;;0.50;;
73126;SDS011;61316;47.852;11.410;2022-09-12T07:01:30;0.47;;;0.40;;
73126;SDS011;61316;47.852;11.410;2022-09-12T07:03:56;0.50;;;0.50;;
73126;SDS011;61316;47.852;11.410;2022-09-12T07:06:24;0.80;;;0.50;;
73126;SDS011;61316;47.852;11.410;2022-09-12T07:08:53;0.50;;;0.50;;
73126;SDS011;61316;47.852;11.410;2022-09-12T07:11:19;0.90;;;0.50;;
73126;SDS011;61316;47.852;11.410;2022-09-12T07:13:46;0.70;;;0.50;;
73126;SDS011;61316;47.852;11.410;2022-09-12T07:16:11;1.23;;;0.52;;
73126;SDS011;61316;47.852;11.410;2022-09-12T07:18:37;0.40;;;0.40;;
73126;SDS011;61316;47.852;11.410;2022-09-12T07:21:03;2.10;;;0.85;;
73126;SDS011;61316;47.852;11.410;2022-09-12T07:23:28;3.75;;;1.25;;
73126;SDS011;61316;47.852;11.410;2022-09-12T07:25:54;3.97;;;1.27;;
73126;SDS011;61316;47.852;11.410;2022-09-12T07:28:21;4.53;;;1.23;;
73126;SDS011;61316;47.852;11.410;2022-09-12T07:30:46;4.80;;;1.33;;
73126;SDS011;61316;47.852;11.410;2022-09-12T07:33:11;3.20;;;1.37;;
73126;SDS011;61316;47.852;11.410;2022-09-12T07:35:36;6.20;;;1.40;;
73126;SDS011;61316;47.852;11.410;2022-09-12T07:38:01;4.93;;;1.50;;
73126;SDS011;61316;47.852;11.410;2022-09-12T07:40:26;3.30;;;1.40;;
73126;SDS011;61316;47.852;11.410;2022-09-12T07:42:52;4.37;;;1.60;;
73126;SDS011;61316;47.852;11.410;2022-09-12T07:45:17;5.10;;;1.67;;
73126;SDS011;61316;47.852;11.410;2022-09-12T07:47:42;5.70;;;1.70;;
73126;SDS011;61316;47.852;11.410;2022-09-12T07:50:08;5.57;;;1.70;;
73126;SDS011;61316;47.852;11.410;2022-09-12T07:52:33;4.90;;;1.70;;
73126;SDS011;61316;47.852;11.410;2022-09-12T07:54:58;4.90;;;1.63;;
73126;SDS011;61316;47.852;11.410;2022-09-12T07:57:23;5.70;;;1.70;;
73126;SDS011;61316;47.852;11.410;2022-09-12T07:59:49;6.40;;;1.73;;
73126;SDS011;61316;47.852;11.410;2022-09-12T08:02:14;4.43;;;1.70;;
73126;SDS011;61316;47.852;11.410;2022-09-12T08:04:39;4.83;;;1.83;;
73126;SDS011;61316;47.852;11.410;2022-09-12T08:07:06;5.25;;;1.70;;
73126;SDS011;61316;47.852;11.410;2022-09-12T08:09:31;4.83;;;1.90;;
73126;SDS011;61316;47.852;11.410;2022-09-12T08:11:56;5.50;;;2.10;;
73126;SDS011;61316;47.852;11.410;2022-09-12T08:14:21;4.43;;;2.33;;
73126;SDS011;61316;47.852;11.410;2022-09-12T08:16:46;4.13;;;1.80;;
73126;SDS011;61316;47.852;11.410;2022-09-12T08:19:12;7.47;;;2.50;;
73126;SDS011;61316;47.852;11.410;2022-09-12T08:21:37;5.73;;;2.40;;
73126;SDS011;61316;47.852;11.410;2022-09-12T08:24:03;8.07;;;2.70;;
73126;SDS011;61316;47.852;11.410;2022-09-12T08:26:29;7.32;;;2.70;;
73126;SDS011;61316;47.852;11.410;2022-09-12T08:28:54;7.18;;;2.65;;
73126;SDS011;61316;47.852;11.410;2022-09-12T08:31:21;7.83;;;2.83;;
73126;SDS011;61316;47.852;11.410;2022-09-12T08:33:47;5.05;;;2.10;;
73126;SDS011;61316;47.852;11.410;2022-09-12T08:36:16;2.27;;;1.10;;
73126;SDS011;61316;47.852;11.410;2022-09-12T08:38:43;3.47;;;0.95;;
73126;SDS011;61316;47.852;11.410;2022-09-12T08:46:21;2.30;;;1.10;;
73126;SDS011;61316;47.852;11.410;2022-09-12T08:48:47;2.75;;;1.00;;
73126;SDS011;61316;47.852;11.410;2022-09-12T08:51:13;2.33;;;1.13;;
73126;SDS011;61316;47.852;11.410;2022-09-12T08:53:39;3.85;;;1.10;;
73126;SDS011;61316;47.852;11.410;2022-09-12T08:56:05;2.00;;;1.10;;
73126;SDS011;61316;47.852;11.410;2022-09-12T08:58:34;1.98;;;0.85;;
73126;SDS011;61316;47.852;11.410;2022-09-12T09:09:13;0.98;;;0.60;;
73126;SDS011;61316;47.852;11.410;2022-09-12T09:11:45;0.90;;;0.70;;
73126;SDS011;61316;47.852;11.410;2022-09-12T09:22:50;2.17;;;1.35;;
73126;SDS011;61316;47.852;11.410;2022-09-12T09:25:18;1.02;;;0.88;;
73126;SDS011;61316;47.852;11.410;2022-09-12T09:27:49;2.20;;;1.10;;
73126;SDS011;61316;47.852;11.410;2022-09-12T09:30:18;2.60;;;1.10;;
73126;SDS011;61316;47.852;11.410;2022-09-12T09:32:45;2.22;;;0.90;;
73126;SDS011;61316;47.852;11.410;2022-09-12T09:35:15;1.70;;;0.80;;
73126;SDS011;61316;47.852;11.410;2022-09-12T09:37:41;2.33;;;1.00;;
73126;SDS011;61316;47.852;11.410;2022-09-12T09:42:50;4.20;;;1.20;;
73126;SDS011;61316;47.852;11.410;2022-09-12T09:45:21;4.73;;;1.40;;
73126;SDS011;61316;47.852;11.410;2022-09-12T09:48:04;2.90;;;1.20;;
73126;SDS011;61316;47.852;11.410;2022-09-12T09:50:35;4.20;;;1.00;;
73126;SDS011;61316;47.852;11.410;2022-09-12T09:53:00;2.17;;;1.27;;
73126;SDS011;61316;47.852;11.410;2022-09-12T09:55:29;2.63;;;1.10;;
73126;SDS011;61316;47.852;11.410;2022-09-12T09:57:56;4.70;;;1.10;;
73126;SDS011;61316;47.852;11.410;2022-09-12T10:00:25;3.53;;;1.00;;
73126;SDS011;61316;47.852;11.410;2022-09-12T10:08:10;2.00;;;1.08;;
73126;SDS011;61316;47.852;11.410;2022-09-12T10:16:25;1.65;;;1.00;;
73126;SDS011;61316;47.852;11.410;2022-09-12T10:18:51;2.15;;;1.50;;
73126;SDS011;61316;47.852;11.410;2022-09-12T10:21:25;3.23;;;1.20;;
73126;SDS011;61316;47.852;11.410;2022-09-12T10:24:00;4.05;;;0.90;;
73126;SDS011;61316;47.852;11.410;2022-09-12T10:26:29;1.80;;;0.80;;
73126;SDS011;61316;47.852;11.410;2022-09-12T10:28:55;1.25;;;0.80;;
73126;SDS011;61316;47.852;11.410;2022-09-12T10:34:20;2.27;;;0.90;;
73126;SDS011;61316;47.852;11.410;2022-09-12T10:36:46;1.07;;;0.77;;
73126;SDS011;61316;47.852;11.410;2022-09-12T10:39:16;2.93;;;1.00;;
73126;SDS011;61316;47.852;11.410;2022-09-12T10:41:42;1.75;;;0.90;;
73126;SDS011;61316;47.852;11.410;2022-09-12T10:44:13;2.20;;;0.82;;
73126;SDS011;61316;47.852;11.410;2022-09-12T10:46:39;1.30;;;0.70;;
73126;SDS011;61316;47.852;11.410;2022-09-12T10:49:12;1.13;;;0.70;;
73126;SDS011;61316;47.852;11.410;2022-09-12T10:51:38;1.37;;;0.87;;
73126;SDS011;61316;47.852;11.410;2022-09-12T10:54:04;1.47;;;0.73;;
73126;SDS011;61316;47.852;11.410;2022-09-12T10:56:31;1.05;;;0.80;;
73126;SDS011;61316;47.852;11.410;2022-09-12T10:59:06;1.80;;;0.70;;
73126;SDS011;61316;47.852;11.410;2022-09-12T11:01:48;1.00;;;0.80;;
73126;SDS011;61316;47.852;11.410;2022-09-12T11:04:18;0.80;;;0.80;;
73126;SDS011;61316;47.852;11.410;2022-09-12T11:30:26;1.60;;;0.77;;
73126;SDS011;61316;47.852;11.410;2022-09-12T11:33:06;1.30;;;0.70;;
73126;SDS011;61316;47.852;11.410;2022-09-12T11:35:42;3.78;;;1.08;;
73126;SDS011;61316;47.852;11.410;2022-09-12T11:38:13;3.00;;;0.80;;
73126;SDS011;61316;47.852;11.410;2022-09-12T11:40:47;0.77;;;0.70;;
73126;SDS011;61316;47.852;11.410;2022-09-12T11:45:59;1.52;;;0.80;;
73126;SDS011;61316;47.852;11.410;2022-09-12T11:48:33;1.30;;;0.70;;
73126;SDS011;61316;47.852;11.410;2022-09-12T11:50:59;0.65;;;0.65;;
73126;SDS011;61316;47.852;11.410;2022-09-12T11:53:28;1.85;;;0.60;;
73126;SDS011;61316;47.852;11.410;2022-09-12T11:55:55;1.13;;;0.60;;
73126;SDS011;61316;47.852;11.410;2022-09-12T11:58:24;0.68;;;0.68;;
73126;SDS011;61316;47.852;11.410;2022-09-12T12:00:50;1.87;;;1.17;;
73126;SDS011;61316;47.852;11.410;2022-09-12T12:05:52;0.95;;;0.60;;
73126;SDS011;61316;47.852;11.410;2022-09-12T12:08:23;1.13;;;0.68;;
73126;SDS011;61316;47.852;11.410;2022-09-12T12:11:00;0.80;;;0.80;;
73126;SDS011;61316;47.852;11.410;2022-09-12T12:13:30;0.77;;;0.70;;
73126;SDS011;61316;47.852;11.410;2022-09-12T12:15:57;0.90;;;0.80;;
73126;SDS011;61316;47.852;11.410;2022-09-12T12:18:24;1.25;;;0.70;;
73126;SDS011;61316;47.852;11.410;2022-09-12T12:20:50;1.23;;;0.75;;
73126;SDS011;61316;47.852;11.410;2022-09-12T12:23:26;1.25;;;0.70;;
73126;SDS011;61316;47.852;11.410;2022-09-12T12:25:54;1.20;;;0.73;;
73126;SDS011;61316;47.852;11.410;2022-09-12T12:31:04;1.30;;;0.63;;
73126;SDS011;61316;47.852;11.410;2022-09-12T12:40:51;0.90;;;0.55;;
73126;SDS011;61316;47.852;11.410;2022-09-12T12:43:27;1.90;;;0.70;;
73126;SDS011;61316;47.852;11.410;2022-09-12T12:46:00;1.00;;;0.60;;
73126;SDS011;61316;47.852;11.410;2022-09-12T12:48:25;1.00;;;0.70;;
73126;SDS011;61316;47.852;11.410;2022-09-12T12:50:53;1.83;;;0.77;;
73126;SDS011;61316;47.852;11.410;2022-09-12T12:53:20;1.20;;;0.60;;
73126;SDS011;61316;47.852;11.410;2022-09-12T12:55:46;1.20;;;0.70;;
73126;SDS011;61316;47.852;11.410;2022-09-12T12:58:32;2.78;;;0.75;;
73126;SDS011;61316;47.852;11.410;2022-09-12T13:03:30;1.75;;;0.70;;
73126;SDS011;61316;47.852;11.410;2022-09-12T13:05:59;1.70;;;0.80;;
73126;SDS011;61316;47.852;11.410;2022-09-12T13:08:26;0.80;;;0.77;;
73126;SDS011;61316;47.852;11.410;2022-09-12T13:10:57;0.70;;;0.50;;
73126;SDS011;61316;47.852;11.410;2022-09-12T13:16:09;0.80;;;0.80;;
73126;SDS011;61316;47.852;11.410;2022-09-12T13:18:45;0.60;;;0.60;;
73126;SDS011;61316;47.852;11.410;2022-09-12T13:23:36;4.95;;;0.77;;
73126;SDS011;61316;47.852;11.410;2022-09-12T13:26:01;1.85;;;0.60;;
73126;SDS011;61316;47.852;11.410;2022-09-12T13:28:27;2.40;;;0.68;;
73126;SDS011;61316;47.852;11.410;2022-09-12T13:31:07;0.60;;;0.60;;
73126;SDS011;61316;47.852;11.410;2022-09-12T13:33:57;0.70;;;0.70;;
73126;SDS011;61316;47.852;11.410;2022-09-12T13:38:52;0.65;;;0.65;;
73126;SDS011;61316;47.852;11.410;2022-09-12T13:43:55;1.27;;;0.75;;
73126;SDS011;61316;47.852;11.410;2022-09-12T13:46:25;1.23;;;0.60;;
73126;SDS011;61316;47.852;11.410;2022-09-12T13:48:51;0.90;;;0.77;;
73126;SDS011;61316;47.852;11.410;2022-09-12T13:51:23;1.97;;;0.80;;
73126;SDS011;61316;47.852;11.410;2022-09-12T13:53:49;0.75;;;0.68;;
73126;SDS011;61316;47.852;11.410;2022-09-12T13:56:16;0.85;;;0.60;;
73126;SDS011;61316;47.852;11.410;2022-09-12T13:58:52;0.75;;;0.70;;
73126;SDS011;61316;47.852;11.410;2022-09-12T14:01:18;0.88;;;0.60;;
73126;SDS011;61316;47.852;11.410;2022-09-12T14:06:28;0.73;;;0.70;;
73126;SDS011;61316;47.852;11.410;2022-09-12T14:08:59;0.70;;;0.70;;
73126;SDS011;61316;47.852;11.410;2022-09-12T14:11:26;1.92;;;0.73;;
73126;SDS011;61316;47.852;11.410;2022-09-12T14:13:51;1.60;;;0.80;;
73126;SDS011;61316;47.852;11.410;2022-09-12T14:16:18;1.43;;;0.70;;
73126;SDS011;61316;47.852;11.410;2022-09-12T14:18:45;6.30;;;0.93;;
73126;SDS011;61316;47.852;11.410;2022-09-12T14:21:15;1.38;;;0.70;;
73126;SDS011;61316;47.852;11.410;2022-09-12T14:23:45;1.00;;;0.70;;
73126;SDS011;61316;47.852;11.410;2022-09-12T14:26:13;0.77;;;0.70;;
73126;SDS011;61316;47.852;11.410;2022-09-12T14:28:41;1.13;;;0.80;;
73126;SDS011;61316;47.852;11.410;2022-09-12T14:36:19;0.85;;;0.80;;
73126;SDS011;61316;47.852;11.410;2022-09-12T14:38:45;0.90;;;0.70;;
73126;SDS011;61316;47.852;11.410;2022-09-12T14:41:13;1.50;;;0.80;;
73126;SDS011;61316;47.852;11.410;2022-09-12T14:43:45;1.83;;;0.80;;
73126;SDS011;61316;47.852;11.410;2022-09-12T14:46:18;0.70;;;0.70;;
73126;SDS011;61316;47.852;11.410;2022-09-12T14:49:19;1.13;;;0.70;;
73126;SDS011;61316;47.852;11.410;2022-09-12T14:51:36;1.38;;;0.70;;
73126;SDS011;61316;47.852;11.410;2022-09-12T14:54:02;1.40;;;0.80;;
73126;SDS011;61316;47.852;11.410;2022-09-12T14:56:42;0.77;;;0.70;;
73126;SDS011;61316;47.852;11.410;2022-09-12T15:09:58;1.20;;;1.00;;
73126;SDS011;61316;47.852;11.410;2022-09-12T15:12:24;1.63;;;1.00;;
73126;SDS011;61316;47.852;11.410;2022-09-12T15:14:50;1.90;;;1.03;;
73126;SDS011;61316;47.852;11.410;2022-09-12T15:17:15;0.80;;;0.80;;
73126;SDS011;61316;47.852;11.410;2022-09-12T15:19:40;1.20;;;0.80;;
73126;SDS011;61316;47.852;11.410;2022-09-12T15:22:05;1.23;;;0.70;;
73126;SDS011;61316;47.852;11.410;2022-09-12T15:24:30;0.97;;;0.87;;
73126;SDS011;61316;47.852;11.410;2022-09-12T15:26:56;2.53;;;0.80;;
73126;SDS011;61316;47.852;11.410;2022-09-12T15:29:21;1.33;;;0.70;;
73126;SDS011;61316;47.852;11.410;2022-09-12T15:31:46;0.60;;;0.60;;
73126;SDS011;61316;47.852;11.410;2022-09-12T15:34:14;1.25;;;0.80;;
73126;SDS011;61316;47.852;11.410;2022-09-12T15:36:40;0.87;;;0.77;;
73126;SDS011;61316;47.852;11.410;2022-09-12T15:39:05;0.70;;;0.70;;
73126;SDS011;61316;47.852;11.410;2022-09-12T15:41:31;0.80;;;0.80;;
73126;SDS011;61316;47.852;11.410;2022-09-12T15:43:57;0.80;;;0.80;;
73126;SDS011;61316;47.852;11.410;2022-09-12T15:46:22;1.23;;;0.70;;
73126;SDS011;61316;47.852;11.410;2022-09-12T15:48:47;1.70;;;0.90;;
73126;SDS011;61316;47.852;11.410;2022-09-12T15:51:13;0.60;;;0.60;;
73126;SDS011;61316;47.852;11.410;2022-09-12T15:53:38;1.10;;;0.70;;
73126;SDS011;61316;47.852;11.410;2022-09-12T15:56:04;1.00;;;0.80;;
73126;SDS011;61316;47.852;11.410;2022-09-12T15:58:29;0.80;;;0.80;;
73126;SDS011;61316;47.852;11.410;2022-09-12T16:00:54;3.30;;;1.00;;
73126;SDS011;61316;47.852;11.410;2022-09-12T16:03:20;1.00;;;0.90;;
73126;SDS011;61316;47.852;11.410;2022-09-12T16:05:46;2.03;;;1.08;;
73126;SDS011;61316;47.852;11.410;2022-09-12T16:08:12;2.27;;;1.00;;
73126;SDS011;61316;47.852;11.410;2022-09-12T16:10:37;2.57;;;1.00;;
73126;SDS011;61316;47.852;11.410;2022-09-12T16:13:02;2.20;;;0.90;;
73126;SDS011;61316;47.852;11.410;2022-09-12T16:15:28;2.30;;;0.90;;
73126;SDS011;61316;47.852;11.410;2022-09-12T16:17:53;6.83;;;1.70;;
73126;SDS011;61316;47.852;11.410;2022-09-12T16:20:18;6.53;;;2.40;;
73126;SDS011;61316;47.852;11.410;2022-09-12T16:22:44;10.27;;;2.60;;
73126;SDS011;61316;47.852;11.410;2022-09-12T16:25:09;7.77;;;2.50;;
73126;SDS011;61316;47.852;11.410;2022-09-12T16:27:35;7.27;;;3.30;;
73126;SDS011;61316;47.852;11.410;2022-09-12T16:30:01;10.20;;;3.58;;
73126;SDS011;61316;47.852;11.410;2022-09-12T16:32:26;9.27;;;3.30;;
73126;SDS011;61316;47.852;11.410;2022-09-12T16:34:51;7.78;;;2.88;;
73126;SDS011;61316;47.852;11.410;2022-09-12T16:37:17;6.83;;;2.43;;
73126;SDS011;61316;47.852;11.410;2022-09-12T16:39:42;4.50;;;2.00;;
73126;SDS011;61316;47.852;11.410;2022-09-12T16:42:07;5.03;;;1.87;;
73126;SDS011;61316;47.852;11.410;2022-09-12T16:44:32;3.63;;;1.60;;
73126;SDS011;61316;47.852;11.410;2022-09-12T16:46:57;3.20;;;1.30;;
73126;SDS011;61316;47.852;11.410;2022-09-12T16:49:23;2.70;;;1.20;;
73126;SDS011;61316;47.852;11.410;2022-09-12T16:51:48;1.63;;;1.00;;
73126;SDS011;61316;47.852;11.410;2022-09-12T16:54:13;2.83;;;1.50;;
73126;SDS011;61316;47.852;11.410;2022-09-12T16:56:39;2.50;;;1.30;;
73126;SDS011;61316;47.852;11.410;2022-09-12T16:59:05;3.10;;;1.50;;
73126;SDS011;61316;47.852;11.410;2022-09-12T17:01:30;3.45;;;1.30;;
73126;SDS011;61316;47.852;11.410;2022-09-12T17:03:56;4.35;;;1.40;;
73126;SDS011;61316;47.852;11.410;2022-09-12T17:06:22;4.20;;;1.60;;
73126;SDS011;61316;47.852;11.410;2022-09-12T17:08:49;5.38;;;1.20;;